createdAt,value
2019-03-21T00:05:05.040Z,10.10
2019-03-21T00:10:59.147Z,9.78
2019-03-21T00:16:05.862Z,9.75
2019-03-21T00:21:12.531Z,9.60
2019-03-21T00:26:19.089Z,9.73
2019-03-21T00:31:25.814Z,10.70
2019-03-21T00:36:32.360Z,10.35
2019-03-21T00:41:39.149Z,10.70
2019-03-21T00:46:45.921Z,10.78
2019-03-21T00:51:52.639Z,10.25
2019-03-21T00:56:59.310Z,11.03
2019-03-21T01:02:06.248Z,10.38
2019-03-21T01:07:13.137Z,11.40
2019-03-21T01:12:19.729Z,11.93
2019-03-21T01:17:26.425Z,12.07
2019-03-21T01:22:33.290Z,12.65
2019-03-21T01:27:39.958Z,12.90
2019-03-21T01:32:46.752Z,12.50
2019-03-21T01:37:53.371Z,12.10
2019-03-21T01:43:00.114Z,11.53
2019-03-21T01:48:07.000Z,11.28
2019-03-21T01:53:13.814Z,11.35
2019-03-21T01:58:20.659Z,10.90
2019-03-21T02:03:27.304Z,10.90
2019-03-21T02:08:33.967Z,11.95
2019-03-21T02:13:40.610Z,11.75
2019-03-21T02:18:47.229Z,11.60
2019-03-21T02:23:53.852Z,12.95
2019-03-21T02:29:00.618Z,13.95
2019-03-21T02:34:07.600Z,14.75
2019-03-21T02:39:14.660Z,14.98
2019-03-21T02:44:21.263Z,13.80
2019-03-21T02:49:27.880Z,14.20
2019-03-21T02:54:34.595Z,15.93
2019-03-21T02:59:41.674Z,15.90
2019-03-21T03:04:48.365Z,15.35
2019-03-21T03:09:54.754Z,15.05
2019-03-21T03:15:01.368Z,14.47
2019-03-21T03:20:09.264Z,15.25
2019-03-21T03:25:16.220Z,14.73
2019-03-21T03:30:23.847Z,14.03
2019-03-21T03:35:30.565Z,14.07
2019-03-21T03:40:39.759Z,12.63
2019-03-21T03:45:46.626Z,12.70
2019-03-21T03:50:53.429Z,13.45
2019-03-21T03:56:00.116Z,13.53
2019-03-21T04:01:07.357Z,13.43
2019-03-21T04:06:14.150Z,15.85
2019-03-21T04:11:21.229Z,13.48
2019-03-21T04:16:27.976Z,13.43
2019-03-21T04:21:34.925Z,16.15
2019-03-21T04:26:41.849Z,18.27
2019-03-21T04:31:48.689Z,18.30
2019-03-21T04:36:55.363Z,19.23
2019-03-21T04:42:01.999Z,18.45
2019-03-21T04:47:08.594Z,19.75
2019-03-21T04:52:15.083Z,19.10
2019-03-21T04:57:21.771Z,17.45
2019-03-21T05:02:28.722Z,17.50
2019-03-21T05:07:35.633Z,16.90
2019-03-21T05:12:42.338Z,17.15
2019-03-21T05:17:49.848Z,17.02
2019-03-21T05:22:56.530Z,19.75
2019-03-21T05:28:03.391Z,20.10
2019-03-21T05:33:10.123Z,21.60
2019-03-21T05:38:16.961Z,19.25
2019-03-21T05:43:26.597Z,19.15
2019-03-21T05:48:33.273Z,20.68
2019-03-21T05:53:39.970Z,21.48
2019-03-21T05:58:46.639Z,20.85
2019-03-21T06:03:53.655Z,21.35
2019-03-21T06:09:00.452Z,21.68
2019-03-21T06:14:07.454Z,22.32
2019-03-21T06:19:23.929Z,20.05
2019-03-21T06:24:54.454Z,21.65
2019-03-21T06:30:01.305Z,23.22
2019-03-21T06:35:19.389Z,23.32
2019-03-21T06:40:26.815Z,22.13
2019-03-21T06:45:33.402Z,22.90
2019-03-21T06:50:40.597Z,22.27
2019-03-21T06:55:47.198Z,23.52
2019-03-21T07:00:54.339Z,23.70
2019-03-21T07:06:00.890Z,24.18
2019-03-21T07:11:07.681Z,24.30
2019-03-21T07:16:14.426Z,24.72
2019-03-21T07:21:21.357Z,24.18
2019-03-21T07:26:28.117Z,23.32
2019-03-21T07:31:34.706Z,22.52
2019-03-21T07:36:41.299Z,21.23
2019-03-21T07:41:48.174Z,21.33
2019-03-21T07:46:54.829Z,19.95
2019-03-21T07:52:01.586Z,19.00
2019-03-21T07:57:08.344Z,18.60
2019-03-21T08:02:15.235Z,18.10
2019-03-21T08:07:21.877Z,18.35
2019-03-21T08:12:28.926Z,18.90
2019-03-21T08:17:35.430Z,17.07
2019-03-21T08:22:41.954Z,16.82
2019-03-21T08:27:48.547Z,15.55
2019-03-21T08:32:55.115Z,14.95
2019-03-21T08:38:01.939Z,15.38
2019-03-21T08:43:08.494Z,13.95
2019-03-21T08:48:15.734Z,14.20
2019-03-21T08:53:22.392Z,12.55
2019-03-21T08:58:29.256Z,12.50
2019-03-21T09:03:36.116Z,12.45
2019-03-21T09:08:42.646Z,10.70
2019-03-21T09:13:49.354Z,11.05
2019-03-21T09:18:56.095Z,10.90
2019-03-21T09:24:02.920Z,10.05
2019-03-21T09:29:09.615Z,9.55
2019-03-21T09:34:16.133Z,9.00
2019-03-21T09:39:22.833Z,9.40
2019-03-21T09:44:29.944Z,8.80
2019-03-21T09:49:36.667Z,8.40
2019-03-21T09:54:43.311Z,7.37
2019-03-21T09:59:49.952Z,8.15
2019-03-21T10:04:56.757Z,7.95
2019-03-21T10:10:03.885Z,8.35
2019-03-21T10:15:10.809Z,6.37
2019-03-21T10:20:18.021Z,6.65
2019-03-21T10:25:26.683Z,6.62
2019-03-21T10:30:35.711Z,6.92
2019-03-21T10:35:42.542Z,6.78
2019-03-21T10:40:49.170Z,6.60
2019-03-21T10:45:55.880Z,6.72
2019-03-21T10:51:02.553Z,6.35
2019-03-21T10:56:09.282Z,6.30
2019-03-21T11:01:16.013Z,5.75
2019-03-21T11:06:22.604Z,5.80
2019-03-21T11:11:29.469Z,5.00
2019-03-21T11:16:36.250Z,5.30
2019-03-21T11:21:42.965Z,4.08
2019-03-21T11:26:49.667Z,4.15
2019-03-21T11:31:56.740Z,4.97
2019-03-21T11:37:03.823Z,12.47
2019-03-21T11:42:10.633Z,4.05
2019-03-21T11:47:17.298Z,4.80
2019-03-21T11:52:24.497Z,4.40
2019-03-21T11:57:31.423Z,4.35
2019-03-21T12:02:39.782Z,4.40
2019-03-21T12:07:46.361Z,4.20
2019-03-21T12:12:53.156Z,4.37
2019-03-21T12:18:00.005Z,4.42
2019-03-21T12:23:07.361Z,3.60
2019-03-21T12:28:14.138Z,3.40
2019-03-21T12:33:20.700Z,3.55
2019-03-21T12:38:27.394Z,3.70
2019-03-21T12:43:34.064Z,3.08
2019-03-21T12:48:40.656Z,3.67
2019-03-21T12:59:37.027Z,3.05
2019-03-21T13:04:43.718Z,3.25
2019-03-21T13:09:50.213Z,4.17
2019-03-21T13:14:56.805Z,3.70
2019-03-21T13:20:03.765Z,3.83
2019-03-21T13:25:10.812Z,4.12
2019-03-21T13:30:18.778Z,4.22
2019-03-21T13:35:32.663Z,4.12
2019-03-21T13:40:33.967Z,4.62
2019-03-21T13:45:40.728Z,5.28
2019-03-21T13:50:47.187Z,4.03
2019-03-21T13:55:53.951Z,4.17
2019-03-21T14:01:00.477Z,5.53
2019-03-21T14:06:07.270Z,4.72
2019-03-21T14:11:14.144Z,5.37
2019-03-21T14:16:20.974Z,5.80
2019-03-21T14:21:27.820Z,4.78
2019-03-21T14:26:34.457Z,4.95
2019-03-21T14:31:41.212Z,5.42
2019-03-21T14:36:47.945Z,5.35
2019-03-21T14:41:54.689Z,5.72
2019-03-21T14:47:01.292Z,4.97
2019-03-21T14:52:08.138Z,5.97
2019-03-21T14:57:15.541Z,8.20
2019-03-21T15:02:22.204Z,6.30
2019-03-21T15:07:28.958Z,6.75
2019-03-21T15:12:35.631Z,5.62
2019-03-21T15:17:42.468Z,6.03
2019-03-21T15:22:49.170Z,6.25
2019-03-21T15:27:55.811Z,6.03
2019-03-21T15:33:02.325Z,6.55
2019-03-21T15:38:08.985Z,6.22
2019-03-21T15:43:15.495Z,6.97
2019-03-21T15:48:22.323Z,6.53
2019-03-21T15:53:29.195Z,6.65
2019-03-21T15:58:35.964Z,6.17
2019-03-21T16:03:42.660Z,6.92
2019-03-21T16:08:49.355Z,6.80
2019-03-21T16:13:56.149Z,6.85
2019-03-21T16:19:02.718Z,6.45
2019-03-21T16:24:09.509Z,6.83
2019-03-21T16:29:16.442Z,6.28
2019-03-21T16:34:23.518Z,6.45
2019-03-21T16:39:30.263Z,7.42
2019-03-21T16:44:36.853Z,6.15
2019-03-21T16:49:43.422Z,6.80
2019-03-21T16:54:50.342Z,6.67
2019-03-21T16:59:57.416Z,7.37
2019-03-21T17:05:04.491Z,7.25
2019-03-21T17:10:11.867Z,6.55
2019-03-21T17:15:18.726Z,7.10
2019-03-21T17:20:25.489Z,7.20
2019-03-21T17:25:32.289Z,6.22
2019-03-21T17:30:39.044Z,5.97
2019-03-21T17:35:45.670Z,5.67
2019-03-21T17:40:52.251Z,5.53
2019-03-21T17:45:59.095Z,5.25
2019-03-21T17:51:05.957Z,5.08
2019-03-21T17:56:12.646Z,5.00
2019-03-21T18:01:19.862Z,4.45
2019-03-21T18:06:26.758Z,4.45
2019-03-21T18:11:33.550Z,4.22
2019-03-21T18:16:40.387Z,3.67
2019-03-21T18:21:46.974Z,4.05
2019-03-21T18:26:54.391Z,4.08
2019-03-21T18:32:01.007Z,5.20
2019-03-21T18:37:07.603Z,4.87
2019-03-21T18:42:14.429Z,4.67
2019-03-21T18:47:20.955Z,4.72
2019-03-21T18:52:27.963Z,3.90
2019-03-21T18:57:35.029Z,3.10
2019-03-21T19:02:41.819Z,2.90
2019-03-21T19:07:48.520Z,2.70
2019-03-21T19:12:55.421Z,3.10
2019-03-21T19:18:01.899Z,3.20
2019-03-21T19:23:08.696Z,2.55
2019-03-21T19:28:15.489Z,3.45
2019-03-21T19:33:22.487Z,3.12
2019-03-21T19:38:29.389Z,3.52
2019-03-21T19:43:36.084Z,3.83
2019-03-21T19:48:50.062Z,23.55
2019-03-21T19:53:52.201Z,22.62
2019-03-21T19:59:01.096Z,14.95
2019-03-21T20:04:07.255Z,7.67
2019-03-21T20:09:13.993Z,8.50
2019-03-21T20:14:20.743Z,11.08
2019-03-21T20:19:27.484Z,15.00
2019-03-21T20:24:34.107Z,15.72
2019-03-21T20:29:40.901Z,14.38
2019-03-21T20:34:47.700Z,14.30
2019-03-21T20:39:54.301Z,12.63
2019-03-21T20:45:01.130Z,10.40
2019-03-21T20:50:08.136Z,9.48
2019-03-21T20:55:15.024Z,10.25
2019-03-21T21:00:23.115Z,9.60
2019-03-21T21:05:29.828Z,7.90
2019-03-21T21:10:36.713Z,8.33
2019-03-21T21:15:43.611Z,7.08
2019-03-21T21:20:50.434Z,8.28
2019-03-21T21:26:05.423Z,8.00
2019-03-21T21:31:05.739Z,7.85
2019-03-21T21:36:21.574Z,11.85
2019-03-21T21:41:20.653Z,18.85
2019-03-21T21:46:27.268Z,14.55
2019-03-21T21:51:34.015Z,13.75
2019-03-21T21:56:40.882Z,12.58
2019-03-21T22:01:47.741Z,22.62
2019-03-21T22:06:54.360Z,31.90
2019-03-21T22:12:01.056Z,27.95
2019-03-21T22:17:07.797Z,20.27
2019-03-21T22:22:19.341Z,16.87
2019-03-21T22:27:26.089Z,11.48
2019-03-21T22:32:32.959Z,30.02
2019-03-21T22:37:39.688Z,11.60
2019-03-21T22:42:46.589Z,31.35
2019-03-21T22:47:53.343Z,7.95
2019-03-21T22:53:00.074Z,7.70
2019-03-21T22:58:06.929Z,11.20
2019-03-21T23:03:13.800Z,20.90
2019-03-21T23:08:20.411Z,25.50
2019-03-21T23:13:27.308Z,18.32
2019-03-21T23:18:34.360Z,20.10
2019-03-21T23:23:41.064Z,10.30
2019-03-21T23:28:48.008Z,16.35
2019-03-21T23:33:54.754Z,6.60
2019-03-21T23:39:01.442Z,6.75
2019-03-21T23:44:08.033Z,8.60
2019-03-21T23:49:14.688Z,10.85
2019-03-21T23:54:21.318Z,12.05
2019-03-21T23:59:27.982Z,11.38
